SWR560 LSZH-LFMN
Flight info
| Callsign | SWR560 |
|---|---|
| Flight time | N/A |
| Altitude | 30000 |
| Route | VEBIT T53 GERSA DCT SOSON DCT ODINA/N0468F310 DCT ENOBA Z185 ASBOP/N0387F190 Z185 BORDI |
| Aircraft | A21N/M-SDE2E3FGHIRWXY/LB1 |
Departure
| Time | N/A |
|---|---|
| Airport | Zürich Airport (LSZH) |
Arrival
| Time | 2026-05-04 20:36 |
|---|---|
| Airport | Nice-Côte d'Azur Airport (LFMN) |
| Time | Latitude | Longitude | Altitude | Speed | Heading |
|---|---|---|---|---|---|
| 2026-05-04 20:26 | 43.44964 | 7.28021 | 9155 ft | 291 kts | 272° |
| 2026-05-04 20:27 | 43.45137 | 7.25334 | 8658 ft | 290 kts | 272° |
| 2026-05-04 20:27 | 43.45314 | 7.22567 | 8205 ft | 289 kts | 272° |
| 2026-05-04 20:27 | 43.45490 | 7.19814 | 7728 ft | 289 kts | 272° |
| 2026-05-04 20:27 | 43.45605 | 7.17992 | 7433 ft | 288 kts | 272° |
| 2026-05-04 20:28 | 43.45759 | 7.15555 | 7039 ft | 286 kts | 272° |
| 2026-05-04 20:28 | 43.45988 | 7.11974 | 6422 ft | 286 kts | 272° |
| 2026-05-04 20:28 | 43.46102 | 7.10151 | 6075 ft | 286 kts | 272° |
| 2026-05-04 20:28 | 43.46268 | 7.07412 | 5611 ft | 285 kts | 273° |
| 2026-05-04 20:29 | 43.46484 | 7.03799 | 5071 ft | 285 kts | 274° |
| 2026-05-04 20:29 | 43.46594 | 7.01991 | 4788 ft | 285 kts | 275° |
| 2026-05-04 20:29 | 43.46855 | 6.99272 | 4375 ft | 281 kts | 289° |
| 2026-05-04 20:29 | 43.47784 | 6.96999 | 3873 ft | 275 kts | 318° |
| 2026-05-04 20:30 | 43.49319 | 6.95619 | 3529 ft | 260 kts | 348° |
| 2026-05-04 20:30 | 43.50814 | 6.95415 | 3417 ft | 239 kts | 15° |
| 2026-05-04 20:30 | 43.52126 | 6.96165 | 3275 ft | 216 kts | 46° |
| 2026-05-04 20:30 | 43.52895 | 6.97756 | 3169 ft | 210 kts | 79° |
| 2026-05-04 20:31 | 43.53080 | 6.99759 | 3084 ft | 211 kts | 82° |
| 2026-05-04 20:31 | 43.53506 | 7.01658 | 3062 ft | 202 kts | 62° |
| 2026-05-04 20:31 | 43.54237 | 7.03222 | 3007 ft | 190 kts | 58° |
| 2026-05-04 20:31 | 43.54991 | 7.04716 | 3023 ft | 188 kts | 58° |
| 2026-05-04 20:32 | 43.55604 | 7.05925 | 2987 ft | 189 kts | 57° |
| 2026-05-04 20:32 | 43.56305 | 7.07290 | 2739 ft | 193 kts | 56° |
| 2026-05-04 20:32 | 43.56994 | 7.08578 | 2440 ft | 193 kts | 55° |
| 2026-05-04 20:32 | 43.57618 | 7.09709 | 2186 ft | 187 kts | 55° |
| 2026-05-04 20:33 | 43.58232 | 7.10758 | 1975 ft | 180 kts | 52° |
| 2026-05-04 20:33 | 43.59054 | 7.11997 | 1736 ft | 171 kts | 49° |
| 2026-05-04 20:33 | 43.59860 | 7.13132 | 1499 ft | 161 kts | 46° |
| 2026-05-04 20:33 | 43.60459 | 7.13945 | 1364 ft | 160 kts | 46° |
| 2026-05-04 20:34 | 43.61051 | 7.14746 | 1213 ft | 160 kts | 46° |
| 2026-05-04 20:34 | 43.61811 | 7.15786 | 999 ft | 149 kts | 45° |
| 2026-05-04 20:34 | 43.62277 | 7.16418 | 851 ft | 146 kts | 45° |
| 2026-05-04 20:34 | 43.62871 | 7.17227 | 691 ft | 141 kts | 44° |
| 2026-05-04 20:35 | 43.63222 | 7.17711 | 596 ft | 142 kts | 45° |
| 2026-05-04 20:35 | 43.63430 | 7.17992 | 522 ft | 142 kts | 43° |
| 2026-05-04 20:35 | 43.64095 | 7.18882 | 349 ft | 141 kts | 43° |
| 2026-05-04 20:35 | 43.64777 | 7.19819 | 174 ft | 142 kts | 45° |
| 2026-05-04 20:36 | 43.65463 | 7.20779 | 37 ft | 138 kts | 45° |
| 2026-05-04 20:36 | 43.66001 | 7.21511 | 24 ft | 118 kts | 46° |
| 2026-05-04 20:36 | 43.66438 | 7.22136 | 23 ft | 67 kts | 45° |
| 2026-05-04 20:36 | 43.66713 | 7.22472 | 20 ft | 31 kts | 10° |
| 2026-05-04 20:37 | 43.66796 | 7.22415 | 22 ft | 8 kts | 319° |
| 2026-05-04 20:37 | 43.66819 | 7.22336 | 21 ft | 16 kts | 262° |
| 2026-05-04 20:37 | 43.66777 | 7.22271 | 23 ft | 9 kts | 221° |
| 2026-05-04 20:37 | 43.66706 | 7.22180 | 21 ft | 20 kts | 223° |
| 2026-05-04 20:38 | 43.66605 | 7.22040 | 23 ft | 18 kts | 231° |
| 2026-05-04 20:38 | 43.66629 | 7.21936 | 21 ft | 9 kts | 308° |
| 2026-05-04 20:38 | 43.66645 | 7.21884 | 21 ft | 7 kts | 275° |
| 2026-05-04 20:38 | 43.66586 | 7.21776 | 21 ft | 21 kts | 223° |
| 2026-05-04 20:39 | 43.66597 | 7.21683 | 23 ft | 18 kts | 310° |
| 2026-05-04 20:39 | 43.66616 | 7.21656 | 21 ft | 0 kts | 316° |